Αρχική σελίδα
METAR-TAF:

METAR-TAF

Αεροδρόμια :

Αβάνα, Κούβα

γεωγραφικό πλάτος: 22-59N, γεωγραφικό μήκος: 082-24W, υψόμετρο: 59 μ

Παρών καιρός

Η αναφορά έγινε 24 λεπτά πριν, στις 07:55 UTC
Άνεμος 3 kt από ΝΔ
Θερμοκρασία 22°C
Υγρασία 100%
Πίεση 1014 hPa
Ορατότητα: 9000 μ
Καθαρός ουρανός

METAR: MUHA 210755Z 22003KT 9000 SKC 22/22 Q1014

Χρόνος: 04:19 (08:19 UTC)

Πρόγνωση Καιρού

Η αναφορά έγινε 3 ώρες και 19 λεπτά πριν, στις 05:00 UTC
Η πρόγνωση ισχύει από τις 21 στις 06 UTC έως τις 22 στις 06 UTC
Άνεμος 6 kt από Ν
Ορατότητα: 9000 μ
Λίγα νέφη σε ύψος 4000 πόδια
Προσωρινά
από 21 στις 09 UTC έως τις 21 στις 12 UTC
Ορατότητα: 3000 μ
Καλύπτεται εν μέρει από την ομίχλη

TAF: MUHA 210500Z 2106/2206 18006KT 9000 FEW040 TEMPO 2109/2112 3000 PRFG

Μετεωρολογικές αναφορές και προγνώσεις για περισσότερα από 4000 αεροδρόμια (δελτία METAR και TAF).

Οι διαθέσιμοι σταθμοί απεικονίζονται στο χάρτη με κίτρινες και κόκκινες κουκκίδες.

Μετακινήστε το ποντίκι πάνω από τις κουκκίδες για να δείτε το όνομα του σταθμού.

Στη συνέχεια, κάντε κλικ για να δείτε τις μετεωρολογικές αναφορές και τις προγνώσεις καιρού.

Για να αλλάξετε το χάρτη: κάντε κλικ στα πράσινα κουμπιά με τον μαύρο σταυρό για να ζουμάρετε, στο πράσινο κουμπί με την παύλα για να αφαιρέσετε το ζουμ ή στα πράσινα βέλη για να αντιπαραβάλλετε χάρτες.


METAR-TAF: